Time;durP1;ratioP1;P1;durP2;ratioP2;P2;SDS_P1;SDS_P2;PMS_P1;PMS_P2;Temp;Humidity;BMP_temperature;BMP_pressure;BME280_temperature;BME280_humidity;BME280_pressure;Samples;Min_cycle;Max_cycle;Signal;HPM_P1;HPM_P2
2023/01/04 00:00:11;;;;;;;3.85;1.60;;;;;;;9.09;62.28;100923.41;5051047;28;20056;-51
2023/01/04 00:02:40;;;;;;;7.20;1.90;;;;;;;9.02;63.32;100887.63;5051916;28;20060;-52
2023/01/04 00:05:08;;;;;;;4.72;1.70;;;;;;;9.10;62.00;100900.06;5051628;28;20053;-53
2023/01/04 00:07:35;;;;;;;4.13;1.42;;;;;;;9.09;63.44;100899.25;5054781;28;20512;-50
2023/01/04 00:10:02;;;;;;;5.57;1.70;;;;;;;9.09;62.12;100887.28;5059504;28;20052;-53
2023/01/04 00:12:32;;;;;;;4.93;1.70;;;;;;;8.97;62.63;100890.47;5055595;28;20401;-52
2023/01/04 00:14:59;;;;;;;5.13;2.15;;;;;;;8.97;62.42;100884.09;5055487;28;20413;-52
2023/01/04 00:17:26;;;;;;;3.45;1.50;;;;;;;8.91;63.38;100881.38;5055258;28;20045;-54
2023/01/04 00:19:55;;;;;;;5.70;1.70;;;;;;;8.89;62.55;100880.81;5055314;28;20053;-53
2023/01/04 00:22:22;;;;;;;4.88;1.48;;;;;;;8.84;62.85;100874.47;5060239;28;20045;-51
2023/01/04 00:24:49;;;;;;;4.05;1.58;;;;;;;8.84;62.97;100843.94;5075685;28;20147;-54
2023/01/04 00:27:17;;;;;;;3.75;1.73;;;;;;;8.81;63.22;100837.00;5075461;28;20052;-50
2023/01/04 00:29:44;;;;;;;3.70;1.42;;;;;;;8.83;63.04;100836.72;5075658;28;20051;-49
2023/01/04 00:32:11;;;;;;;4.70;1.48;;;;;;;8.84;64.33;100855.88;5075269;28;20044;-53
2023/01/04 00:34:39;;;;;;;5.85;1.48;;;;;;;8.85;63.42;100826.16;5075412;28;20053;-50
2023/01/04 00:37:08;;;;;;;3.60;1.27;;;;;;;8.79;64.26;100838.44;5068365;28;20511;-50
2023/01/04 00:39:35;;;;;;;2.97;1.40;;;;;;;8.84;63.84;100846.69;5074436;28;20044;-53
2023/01/04 00:42:05;;;;;;;3.67;1.63;;;;;;;8.85;63.94;100821.41;5074648;28;20057;-53
2023/01/04 00:44:33;;;;;;;4.93;1.45;;;;;;;8.89;64.45;100828.03;5075279;28;20106;-58
2023/01/04 00:47:02;;;;;;;3.80;1.65;;;;;;;8.99;64.15;100812.38;5075534;28;20052;-57
2023/01/04 00:49:31;;;;;;;2.37;1.20;;;;;;;8.94;63.90;100805.78;5075754;28;20059;-58
2023/01/04 00:51:58;;;;;;;5.25;1.55;;;;;;;9.00;62.91;100792.63;5071538;28;20056;-57
2023/01/04 00:54:27;;;;;;;4.82;1.67;;;;;;;9.12;63.21;100797.78;5075237;28;20064;-54
2023/01/04 00:56:57;;;;;;;3.53;1.48;;;;;;;9.11;63.57;100768.31;5075064;28;20059;-54
2023/01/04 00:59:25;;;;;;;4.22;1.40;;;;;;;9.10;62.54;100777.81;5074392;28;20056;-54
2023/01/04 01:01:57;;;;;;;5.18;1.50;;;;;;;9.09;63.05;100765.00;5074510;28;20063;-53
2023/01/04 01:04:24;;;;;;;7.88;1.90;;;;;;;8.99;64.25;100779.88;5072747;28;20052;-56
2023/01/04 01:06:54;;;;;;;3.17;1.40;;;;;;;9.08;63.04;100768.94;5068365;28;20059;-56
2023/01/04 01:09:29;;;;;;;3.75;1.27;;;;;;;9.08;63.98;100782.81;5066832;28;20060;-56
2023/01/04 01:11:56;;;;;;;3.38;1.77;;;;;;;9.04;63.44;100756.75;5054729;28;20053;-55
2023/01/04 01:14:27;;;;;;;3.92;1.45;;;;;;;9.11;63.49;100752.50;5054799;28;20057;-51
2023/01/04 01:16:54;;;;;;;5.65;1.90;;;;;;;9.31;62.98;100761.69;5054183;28;20064;-50
2023/01/04 01:19:24;;;;;;;6.45;1.40;;;;;;;9.30;62.19;100760.88;5055125;28;20067;-53
2023/01/04 01:21:51;;;;;;;3.65;1.30;;;;;;;9.30;63.55;100766.44;5073212;28;20052;-55
2023/01/04 01:24:20;;;;;;;4.65;1.10;;;;;;;9.33;62.70;100771.38;5074679;28;20048;-50
2023/01/04 01:26:48;;;;;;;6.15;1.60;;;;;;;9.28;62.87;100748.38;5074840;28;20048;-56
2023/01/04 01:29:16;;;;;;;4.68;1.55;;;;;;;9.27;63.09;100750.31;5055427;28;20057;-52
2023/01/04 01:31:43;;;;;;;4.60;1.20;;;;;;;9.29;63.24;100742.53;5053875;28;20053;-53
2023/01/04 01:34:15;;;;;;;5.75;1.55;;;;;;;9.30;63.70;100746.97;5061480;28;20063;-54
2023/01/04 01:36:43;;;;;;;3.63;1.48;;;;;;;9.17;64.67;100722.66;5074283;28;20067;-55
2023/01/04 01:39:10;;;;;;;5.35;1.30;;;;;;;9.26;64.40;100723.66;5074237;28;20056;-53
2023/01/04 01:41:37;;;;;;;5.80;1.50;;;;;;;9.09;64.80;100728.88;5074096;28;20413;-55
2023/01/04 01:44:27;;;;;;;5.38;1.58;;;;;;;9.26;65.41;100687.53;5073972;28;20064;-55
2023/01/04 01:46:56;;;;;;;4.57;1.33;;;;;;;9.21;64.79;100707.06;5073913;28;20064;-55
2023/01/04 01:49:28;;;;;;;4.85;1.25;;;;;;;9.20;65.44;100751.81;5035920;28;20060;-52
2023/01/04 01:51:59;;;;;;;3.83;1.40;;;;;;;9.16;66.72;100709.09;5033694;28;20057;-57
2023/01/04 01:54:32;;;;;;;2.65;1.20;;;;;;;9.03;67.83;100716.19;5034179;28;20422;-57
2023/01/04 01:57:04;;;;;;;5.22;1.67;;;;;;;9.12;67.69;100687.44;5033840;28;20049;-57
2023/01/04 01:59:36;;;;;;;5.20;1.48;;;;;;;9.01;67.36;100712.88;5034097;28;20421;-57
2023/01/04 02:02:03;;;;;;;4.72;1.45;;;;;;;9.05;67.38;100708.38;5038515;28;20041;-57
2023/01/04 02:04:31;;;;;;;5.72;1.83;;;;;;;9.11;67.49;100701.63;5073152;28;20053;-57
2023/01/04 02:07:02;;;;;;;4.03;1.48;;;;;;;8.83;69.04;100687.56;5067210;28;20059;-57
2023/01/04 02:09:31;;;;;;;4.32;1.27;;;;;;;8.89;69.87;100688.31;5064837;28;20057;-57
2023/01/04 02:11:58;;;;;;;7.10;1.42;;;;;;;8.99;69.71;100682.63;5054205;28;20049;-57
2023/01/04 02:14:29;;;;;;;5.15;1.55;;;;;;;8.91;68.55;100689.69;5054227;28;20064;-57
2023/01/04 02:17:15;;;;;;;3.58;1.50;;;;;;;9.02;69.02;100711.78;5051753;28;20056;-56
2023/01/04 02:20:21;;;;;;;4.30;1.60;;;;;;;8.82;68.99;100666.47;5054219;28;20059;-57
2023/01/04 02:23:35;;;;;;;5.00;1.73;;;;;;;8.96;69.83;100674.06;5047842;28;20513;-56
2023/01/04 02:26:52;;;;;;;6.47;1.45;;;;;;;8.95;68.86;100692.69;5053417;28;20057;-56
2023/01/04 02:29:59;;;;;;;4.65;1.70;;;;;;;8.99;70.19;100670.69;5053303;28;20052;-57
2023/01/04 02:32:42;;;;;;;3.25;1.35;;;;;;;8.99;69.43;100662.34;5062712;28;20048;-57
2023/01/04 02:35:19;;;;;;;9.05;1.92;;;;;;;8.99;70.44;100657.63;5072458;28;20056;-57
2023/01/04 02:37:54;;;;;;;5.30;1.48;;;;;;;8.95;70.73;100689.91;5072715;28;20048;-57
2023/01/04 02:40:29;;;;;;;3.88;1.50;;;;;;;9.00;69.75;100655.69;5053193;28;20057;-57
2023/01/04 02:45:56;;;;;;;6.50;1.60;;;;;;;9.08;70.45;100643.91;5047830;28;20063;-57
2023/01/04 02:51:30;;;;;;;6.45;1.40;;;;;;;9.04;71.31;100638.09;5078629;28;20060;-54
2023/01/04 02:54:00;;;;;;;5.00;1.60;;;;;;;9.07;71.46;100658.91;5073025;28;20477;-56
2023/01/04 02:56:48;;;;;;;5.32;1.30;;;;;;;8.93;72.62;100644.94;5072526;28;20098;-57
2023/01/04 02:59:35;;;;;;;5.13;1.70;;;;;;;8.78;74.03;100626.53;5072234;28;20052;-57
2023/01/04 03:08:08;;;;;;;5.32;1.70;;;;;;;8.58;77.19;100624.03;5078117;28;20079;-57
2023/01/04 03:10:41;;;;;;;4.70;1.80;;;;;;;8.70;77.54;100608.56;5054351;28;20060;-56
2023/01/04 03:13:24;;;;;;;5.45;1.80;;;;;;;8.65;76.46;100610.59;5052446;28;20378;-57
2023/01/04 03:15:55;;;;;;;5.07;1.67;;;;;;;8.65;76.67;100661.41;5067796;28;20516;-56
2023/01/04 03:18:27;;;;;;;3.55;1.42;;;;;;;8.52;76.58;100601.03;5072442;28;20052;-56
2023/01/04 03:20:59;;;;;;;6.05;2.17;;;;;;;8.60;77.70;100607.88;5072201;28;20048;-55
2023/01/04 03:37:35;;;;;;;3.65;1.45;;;;;;;8.46;78.47;100591.97;5038251;28;20064;-55
2023/01/04 03:48:46;;;;;;;;;;;;;;;8.71;79.16;100589.97;5080421;28;20056;-56
2023/01/04 03:51:17;;;;;;;2.95;1.23;;;;;;;8.85;80.01;100565.88;5076201;28;19932;-55
2023/01/04 03:53:52;;;;;;;3.75;1.50;;;;;;;8.76;78.57;100552.94;5076443;28;20059;-56
2023/01/04 03:56:23;;;;;;;2.20;1.10;;;;;;;8.83;79.39;100558.97;5075619;28;20056;-56
2023/01/04 03:58:51;;;;;;;3.15;1.42;;;;;;;8.77;78.27;100569.31;5055390;28;20052;-54
2023/01/04 04:01:23;;;;;;;2.33;1.00;;;;;;;8.91;78.31;100527.75;5055792;28;20048;-56
2023/01/04 04:09:21;;;;;;;3.05;1.05;;;;;;;9.04;77.71;100524.19;5057671;28;20072;-56
2023/01/04 04:11:51;;;;;;;3.72;1.27;;;;;;;8.90;77.93;100576.06;5061426;28;20048;-56
2023/01/04 04:14:18;;;;;;;2.70;1.10;;;;;;;9.01;77.94;100548.97;5075776;28;20063;-55
2023/01/04 04:16:45;;;;;;;1.83;0.85;;;;;;;9.13;77.57;100540.97;5075561;28;20409;-56
2023/01/04 04:19:12;;;;;;;3.00;1.17;;;;;;;9.14;77.60;100518.47;5075734;28;20057;-55
2023/01/04 04:21:40;;;;;;;2.65;1.08;;;;;;;9.19;77.36;100531.44;5075790;28;20059;-55
2023/01/04 04:24:07;;;;;;;2.55;1.13;;;;;;;9.14;77.63;100514.88;5075634;28;20048;-53
2023/01/04 04:26:36;;;;;;;1.75;1.00;;;;;;;9.10;76.57;100555.50;5070180;28;20424;-55
2023/01/04 04:29:04;;;;;;;2.03;1.20;;;;;;;9.34;76.14;100525.63;5075902;28;20506;-54
2023/01/04 04:31:31;;;;;;;3.63;1.10;;;;;;;9.28;76.39;100518.50;5075161;28;20048;-55
2023/01/04 04:34:01;;;;;;;4.57;1.38;;;;;;;9.34;78.01;100514.50;5075636;28;20075;-55
2023/01/04 04:36:28;;;;;;;3.42;1.80;;;;;;;9.08;81.53;100521.63;5075363;28;20056;-57
2023/01/04 04:38:56;;;;;;;4.30;1.70;;;;;;;8.94;80.90;100516.84;5062874;28;20057;-57
2023/01/04 04:41:40;;;;;;;4.50;1.75;;;;;;;9.11;80.46;100507.13;5069666;28;20052;-56
2023/01/04 04:44:10;;;;;;;6.93;1.67;;;;;;;8.71;82.30;100521.38;5075319;28;20063;-57
2023/01/04 04:46:37;;;;;;;5.15;2.30;;;;;;;8.30;85.67;100513.59;5075376;28;20049;-59
2023/01/04 04:49:05;;;;;;;4.82;2.72;;;;;;;8.27;87.77;100480.06;5075457;28;20064;-60
2023/01/04 04:51:33;;;;;;;5.15;2.45;;;;;;;8.04;89.27;100496.47;5074650;28;20405;-60
2023/01/04 04:54:00;;;;;;;4.13;2.42;;;;;;;8.18;91.08;100493.78;5070621;28;20060;-60
2023/01/04 04:56:30;;;;;;;5.75;2.15;;;;;;;8.12;91.81;100486.63;5074691;28;20053;-60
2023/01/04 04:58:57;;;;;;;3.63;2.60;;;;;;;8.27;91.58;100482.81;5074257;28;20060;-60
2023/01/04 05:01:25;;;;;;;5.45;2.30;;;;;;;8.23;90.38;100470.69;5074873;28;20432;-60
2023/01/04 05:03:53;;;;;;;5.07;2.13;;;;;;;8.33;89.74;100476.91;5074990;28;20048;-60
2023/01/04 05:06:20;;;;;;;4.28;2.20;;;;;;;8.38;89.92;100464.94;5074817;28;20056;-60
2023/01/04 05:08:47;;;;;;;6.55;2.55;;;;;;;8.52;90.53;100460.31;5066661;28;20068;-60
2023/01/04 05:11:15;;;;;;;4.15;2.20;;;;;;;8.53;89.25;100453.63;5054431;28;20053;-60
2023/01/04 05:13:43;;;;;;;3.50;2.10;;;;;;;8.56;89.14;100446.63;5054917;28;20053;-60
2023/01/04 05:16:11;;;;;;;5.18;1.83;;;;;;;8.52;86.83;100482.53;5053889;28;20056;-60
2023/01/04 05:18:42;;;;;;;3.65;1.90;;;;;;;8.71;86.98;100465.84;5054781;28;20405;-59
2023/01/04 05:21:09;;;;;;;4.07;1.80;;;;;;;8.66;87.09;100454.81;5054197;28;20048;-60
2023/01/04 05:23:36;;;;;;;4.53;1.92;;;;;;;8.69;86.52;100445.88;5062676;28;20409;-59
2023/01/04 05:26:04;;;;;;;7.43;2.40;;;;;;;8.74;87.08;100445.78;5072165;28;20052;-59
2023/01/04 05:28:31;;;;;;;2.35;1.73;;;;;;;8.83;86.20;100445.09;5074354;28;20048;-59
2023/01/04 05:30:58;;;;;;;3.50;1.45;;;;;;;8.60;85.23;100456.00;5074603;28;20056;-60
2023/01/04 05:33:27;;;;;;;3.63;1.45;;;;;;;8.77;85.95;100447.13;5074154;28;20055;-60
2023/01/04 05:35:58;;;;;;;3.28;1.15;;;;;;;8.94;84.91;100436.28;5074434;28;20071;-60
2023/01/04 05:38:25;;;;;;;2.40;1.40;;;;;;;8.96;85.04;100415.72;5069414;28;20485;-59
2023/01/04 05:40:53;;;;;;;2.50;1.00;;;;;;;8.89;84.96;100428.03;5074420;28;20067;-59
2023/01/04 05:43:23;;;;;;;1.80;1.20;;;;;;;8.91;84.22;100436.88;5074300;28;20044;-59
2023/01/04 05:45:52;;;;;;;1.75;1.25;;;;;;;9.12;83.82;100431.78;5054713;28;20493;-59
2023/01/04 05:48:21;;;;;;;1.60;1.00;;;;;;;9.20;83.77;100435.84;5053703;28;20054;-59
2023/01/04 05:50:49;;;;;;;2.30;1.07;;;;;;;9.25;82.72;100424.59;5054454;28;20053;-59
2023/01/04 05:53:17;;;;;;;1.75;0.90;;;;;;;9.24;81.95;100428.53;5064640;28;20424;-59
2023/01/04 05:55:45;;;;;;;2.92;1.30;;;;;;;9.37;83.08;100428.88;5074076;28;20057;-60
2023/01/04 05:58:12;;;;;;;1.95;0.90;;;;;;;9.41;82.01;100413.19;5073723;28;20052;-61
2023/01/04 06:00:39;;;;;;;1.35;0.98;;;;;;;9.55;81.98;100422.34;5073488;28;20056;-61
2023/01/04 06:03:06;;;;;;;1.70;1.02;;;;;;;9.56;80.94;100401.78;5073502;28;20485;-61
2023/01/04 06:05:34;;;;;;;3.22;1.25;;;;;;;9.45;80.44;100417.84;5064876;28;20049;-61
2023/01/04 06:08:01;;;;;;;2.58;0.88;;;;;;;9.61;80.90;100404.44;5069970;28;20071;-61
2023/01/04 06:10:29;;;;;;;1.55;0.90;;;;;;;9.72;79.90;100411.47;5055807;28;20064;-61
2023/01/04 06:12:57;;;;;;;2.45;1.13;;;;;;;9.68;79.87;100426.28;5053806;28;20045;-61
2023/01/04 06:15:24;;;;;;;1.38;0.90;;;;;;;9.73;79.05;100418.66;5053503;28;20510;-60
2023/01/04 06:18:02;;;;;;;2.90;1.23;;;;;;;9.57;78.64;100408.97;5051230;28;20393;-59
2023/01/04 06:20:30;;;;;;;1.70;1.00;;;;;;;9.64;79.08;100401.06;5053817;28;20056;-62
2023/01/04 06:22:57;;;;;;;1.88;1.17;;;;;;;9.75;79.24;100407.22;5061966;28;20056;-61
2023/01/04 06:25:24;;;;;;;2.00;1.00;;;;;;;9.84;78.93;100385.06;5053432;28;20516;-61
2023/01/04 06:27:53;;;;;;;1.55;1.02;;;;;;;9.80;78.71;100378.47;5052988;28;20478;-61
2023/01/04 06:30:20;;;;;;;2.05;0.90;;;;;;;9.91;77.58;100365.97;5052789;28;20076;-61
2023/01/04 06:32:47;;;;;;;1.70;0.95;;;;;;;9.79;78.44;100391.56;5053082;28;20049;-60
2023/01/04 06:35:14;;;;;;;1.40;0.90;;;;;;;9.68;78.13;100381.78;5049935;28;20061;-61
2023/01/04 06:37:42;;;;;;;1.75;0.90;;;;;;;9.95;77.72;100378.97;5049696;28;20422;-61
2023/01/04 06:40:10;;;;;;;2.13;1.10;;;;;;;10.05;77.83;100366.75;5047857;28;20049;-61
2023/01/04 06:42:46;;;;;;;1.30;0.80;;;;;;;9.95;77.41;100365.06;5053418;28;20056;-61
2023/01/04 06:45:16;;;;;;;1.50;0.95;;;;;;;9.88;77.88;100383.31;5067516;28;20052;-61
2023/01/04 06:47:44;;;;;;;2.53;1.00;;;;;;;9.95;77.46;100358.66;5046613;28;20433;-60
2023/01/04 06:50:12;;;;;;;2.08;1.05;;;;;;;9.99;77.71;100359.66;5051799;28;20060;-60
2023/01/04 06:52:39;;;;;;;1.13;0.80;;;;;;;9.93;77.92;100385.97;5050281;28;20490;-60
2023/01/04 06:55:08;;;;;;;1.35;0.85;;;;;;;9.82;79.05;100387.34;5052048;28;20049;-61
2023/01/04 06:57:36;;;;;;;1.25;0.60;;;;;;;9.89;79.25;100384.94;5052089;28;20065;-61
2023/01/04 07:00:04;;;;;;;2.13;0.70;;;;;;;9.85;78.97;100370.00;5050746;28;20068;-61
2023/01/04 07:02:33;;;;;;;1.30;0.75;;;;;;;9.78;79.55;100361.28;5052460;28;20386;-60
2023/01/04 07:05:00;;;;;;;1.60;0.65;;;;;;;9.65;80.26;100349.84;5059924;28;20513;-61
2023/01/04 07:07:27;;;;;;;1.10;0.70;;;;;;;9.87;80.60;100359.38;5052227;28;20433;-61
2023/01/04 07:09:55;;;;;;;1.50;0.68;;;;;;;9.88;80.69;100366.63;5049158;28;20060;-59
2023/01/04 07:12:22;;;;;;;1.27;0.75;;;;;;;9.84;80.27;100371.16;5059405;28;20056;-60
2023/01/04 07:14:49;;;;;;;1.73;0.55;;;;;;;9.84;81.09;100348.91;5057658;28;20053;-60
2023/01/04 07:17:16;;;;;;;1.17;0.63;;;;;;;9.88;79.63;100370.22;5051811;28;20064;-59
2023/01/04 07:19:45;;;;;;;0.82;0.50;;;;;;;9.80;80.05;100347.88;5059044;28;20060;-60
2023/01/04 07:22:12;;;;;;;0.90;0.60;;;;;;;10.03;79.83;100362.66;5065043;28;20405;-60
2023/01/04 07:24:40;;;;;;;0.75;0.47;;;;;;;9.86;78.71;100360.53;5057864;28;20052;-60
2023/01/04 07:27:07;;;;;;;1.23;0.65;;;;;;;9.97;78.99;100378.63;5051193;28;20497;-60
2023/01/04 07:29:34;;;;;;;1.38;0.60;;;;;;;10.00;79.24;100369.69;5050687;28;20060;-60
2023/01/04 07:32:01;;;;;;;0.80;0.50;;;;;;;10.00;79.02;100382.78;5051467;28;20417;-59
2023/01/04 07:34:29;;;;;;;1.38;0.50;;;;;;;10.12;79.71;100369.13;5052598;28;20060;-60
2023/01/04 07:36:57;;;;;;;1.02;0.70;;;;;;;10.09;79.47;100359.44;5072322;28;20059;-59
2023/01/04 07:39:25;;;;;;;0.90;0.52;;;;;;;10.25;79.03;100367.44;5067704;28;20055;-59
2023/01/04 07:41:52;;;;;;;1.40;0.60;;;;;;;10.19;79.91;100363.13;5042410;28;20053;-59
2023/01/04 07:44:20;;;;;;;0.90;0.60;;;;;;;10.19;79.95;100382.63;5050530;28;20049;-59
2023/01/04 07:46:47;;;;;;;1.20;0.60;;;;;;;10.26;80.09;100377.44;5050558;28;20497;-60
2023/01/04 07:49:17;;;;;;;0.90;0.60;;;;;;;10.19;79.83;100388.19;5050715;28;20056;-59
2023/01/04 07:51:45;;;;;;;1.05;0.55;;;;;;;10.12;80.63;100375.53;5072136;28;20048;-59
2023/01/04 07:54:14;;;;;;;1.98;0.80;;;;;;;10.15;81.00;100402.72;5064782;28;20056;-59
2023/01/04 07:56:41;;;;;;;1.75;0.60;;;;;;;10.13;80.70;100385.50;5051942;28;20401;-59
2023/01/04 07:59:10;;;;;;;0.55;0.40;;;;;;;10.13;80.63;100401.38;5054527;28;20075;-58
2023/01/04 08:01:38;;;;;;;1.67;0.70;;;;;;;10.04;81.57;100400.50;5041164;28;20050;-59
2023/01/04 08:04:06;;;;;;;1.42;1.10;;;;;;;9.98;82.71;100402.56;5048025;28;20044;-59
2023/01/04 08:06:34;;;;;;;1.60;0.73;;;;;;;10.05;83.15;100391.00;5066736;28;20060;-58
2023/01/04 08:09:03;;;;;;;1.15;0.70;;;;;;;9.95;84.23;100389.25;5062842;28;20500;-59
2023/01/04 08:11:32;;;;;;;1.27;0.70;;;;;;;10.09;84.04;100386.44;5057594;28;20053;-59
2023/01/04 08:13:59;;;;;;;3.05;1.08;;;;;;;9.86;86.74;100374.44;5049605;28;20056;-59
2023/01/04 08:16:30;;;;;;;1.80;0.70;;;;;;;9.96;85.81;100365.88;5060218;28;20075;-59
2023/01/04 08:18:59;;;;;;;4.25;0.80;;;;;;;10.01;86.43;100379.66;5053843;28;20064;-60
2023/01/04 08:21:28;;;;;;;1.35;0.70;;;;;;;9.83;85.25;100381.47;5056793;28;20064;-60
2023/01/04 08:23:55;;;;;;;2.22;0.80;;;;;;;9.99;84.99;100351.31;5050929;28;20049;-59
2023/01/04 08:26:23;;;;;;;1.50;0.95;;;;;;;10.07;84.77;100369.25;5056771;28;20049;-59
2023/01/04 08:28:52;;;;;;;1.42;0.82;;;;;;;10.12;84.38;100358.81;5054354;28;20060;-58
2023/01/04 08:31:22;;;;;;;1.45;0.95;;;;;;;10.14;84.75;100373.25;5056358;28;20494;-60
2023/01/04 08:33:50;;;;;;;1.13;0.77;;;;;;;10.12;84.49;100364.38;5053733;28;20057;-59
2023/01/04 08:36:19;;;;;;;1.05;0.60;;;;;;;10.18;84.61;100328.88;5053868;28;20049;-59
2023/01/04 08:38:47;;;;;;;1.42;0.80;;;;;;;10.03;84.95;100332.03;5051393;28;20477;-60
2023/01/04 08:41:15;;;;;;;1.40;0.70;;;;;;;10.21;84.27;100339.41;5055439;28;20056;-60
2023/01/04 08:43:43;;;;;;;1.40;0.80;;;;;;;10.16;84.14;100353.44;5053856;28;20496;-60
2023/01/04 08:46:12;;;;;;;1.75;1.00;;;;;;;10.13;83.67;100315.94;5052121;28;20060;-60
2023/01/04 08:48:40;;;;;;;1.08;0.60;;;;;;;10.27;83.27;100320.63;5053115;28;20485;-60
2023/01/04 08:51:09;;;;;;;1.50;0.77;;;;;;;10.30;82.72;100331.97;5050398;28;20057;-60
2023/01/04 08:53:37;;;;;;;2.75;0.98;;;;;;;10.14;82.54;100309.25;5069393;28;20116;-60
2023/01/04 08:56:06;;;;;;;2.90;0.80;;;;;;;10.29;82.76;100326.69;5071298;28;20725;-59
2023/01/04 08:58:35;;;;;;;0.93;0.68;;;;;;;10.44;81.94;100314.41;5053052;28;20064;-59
2023/01/04 09:01:03;;;;;;;1.40;0.80;;;;;;;10.36;81.43;100310.41;5056661;28;20070;-59
2023/01/04 09:03:32;;;;;;;1.45;0.80;;;;;;;10.28;81.45;100305.56;5067726;28;20405;-59
2023/01/04 09:06:03;;;;;;;1.10;0.65;;;;;;;10.44;80.31;100300.47;5052070;28;20056;-59
2023/01/04 09:08:32;;;;;;;1.50;0.70;;;;;;;10.46;80.97;100296.22;5056627;28;20056;-59
2023/01/04 09:11:05;;;;;;;1.38;0.70;;;;;;;10.50;80.43;100297.22;5053267;28;20402;-58
2023/01/04 09:13:32;;;;;;;0.90;0.50;;;;;;;10.61;80.66;100300.56;5073710;28;20500;-58
2023/01/04 09:16:01;;;;;;;1.20;0.60;;;;;;;10.67;80.31;100295.69;5053186;28;20060;-59
2023/01/04 09:18:29;;;;;;;1.20;0.70;;;;;;;10.62;80.85;100302.19;5061574;28;20067;-59
2023/01/04 09:21:00;;;;;;;1.55;0.85;;;;;;;10.92;80.36;100303.34;5071431;28;20431;-60
2023/01/04 09:23:29;;;;;;;1.33;0.60;;;;;;;10.70;80.35;100306.19;5053045;28;20048;-59
2023/01/04 09:25:56;;;;;;;1.38;0.70;;;;;;;10.86;80.58;100298.25;5051251;28;20053;-59
2023/01/04 09:28:23;;;;;;;1.10;0.60;;;;;;;10.91;80.75;100300.88;5050865;28;20413;-59
2023/01/04 09:30:50;;;;;;;1.52;0.70;;;;;;;10.84;80.59;100306.09;5051078;28;20049;-60
2023/01/04 09:33:18;;;;;;;2.25;0.65;;;;;;;10.78;80.67;100302.63;5049800;28;20053;-59
2023/01/04 09:35:45;;;;;;;1.63;0.50;;;;;;;10.76;80.74;100296.53;5050907;28;20056;-58
2023/01/04 09:38:14;;;;;;;1.88;0.57;;;;;;;10.87;80.93;100283.16;5067852;28;20493;-59
2023/01/04 09:40:52;;;;;;;0.90;0.60;;;;;;;10.89;80.48;100295.63;5050936;28;20068;-59
2023/01/04 09:43:23;;;;;;;1.00;0.40;;;;;;;10.99;80.88;100279.78;5050331;28;20045;-59
2023/01/04 09:45:55;;;;;;;0.95;0.60;;;;;;;10.98;80.98;100278.94;5051509;28;20045;-59
2023/01/04 09:48:27;;;;;;;1.63;0.70;;;;;;;10.94;80.86;100309.44;5063284;28;20415;-59
2023/01/04 09:50:57;;;;;;;1.95;0.65;;;;;;;11.06;81.10;100280.13;5056096;28;20060;-59
2023/01/04 09:53:31;;;;;;;1.85;0.90;;;;;;;10.92;81.29;100288.59;5054179;28;20052;-59
2023/01/04 09:56:17;;;;;;;1.40;0.70;;;;;;;10.96;81.17;100270.91;5051210;28;20049;-59
2023/01/04 09:58:44;;;;;;;2.58;0.70;;;;;;;10.96;81.30;100287.63;5056863;28;20048;-59
2023/01/04 10:01:15;;;;;;;10.32;1.38;;;;;;;10.62;86.24;100295.81;5055624;28;20064;-59
2023/01/04 10:03:48;;;;;;;2.40;1.50;;;;;;;10.47;89.24;100278.34;5064805;28;20501;-60
2023/01/04 10:06:16;;;;;;;5.22;1.70;;;;;;;10.63;90.84;100297.47;5050264;28;20075;-60
2023/01/04 10:08:44;;;;;;;2.17;1.40;;;;;;;10.66;90.66;100268.97;5052788;28;20075;-59
2023/01/04 10:11:38;;;;;;;1.80;1.60;;;;;;;10.53;90.01;100285.44;5051624;28;20481;-59
2023/01/04 10:14:22;;;;;;;1.98;1.02;;;;;;;10.57;88.67;100296.78;5055208;28;20059;-59
2023/01/04 10:17:01;;;;;;;2.13;1.08;;;;;;;10.56;88.10;100295.97;5051122;28;20494;-59
2023/01/04 10:19:40;;;;;;;3.13;1.95;;;;;;;10.65;87.26;100284.84;5054032;28;20052;-59
2023/01/04 10:22:14;;;;;;;2.25;1.52;;;;;;;10.76;87.55;100271.47;5054594;28;20056;-59
2023/01/04 10:24:55;;;;;;;5.78;1.30;;;;;;;10.79;86.66;100268.03;5071831;28;20087;-59
2023/01/04 10:27:34;;;;;;;1.73;1.10;;;;;;;10.87;86.39;100272.81;5051629;28;20052;-59
2023/01/04 10:30:24;;;;;;;1.50;0.80;;;;;;;10.87;85.82;100263.66;5051450;28;20119;-59
2023/01/04 10:33:00;;;;;;;1.70;1.10;;;;;;;10.87;86.10;100300.69;5037426;28;20515;-59
2023/01/04 10:35:31;;;;;;;2.42;0.90;;;;;;;10.44;87.64;100280.97;5065854;28;20053;-59
2023/01/04 10:38:03;;;;;;;3.03;1.20;;;;;;;10.76;87.85;100268.69;5045749;28;20072;-59
2023/01/04 10:40:39;;;;;;;1.40;1.08;;;;;;;10.85;87.98;100291.81;5045647;28;20102;-59
2023/01/04 10:43:15;;;;;;;1.90;1.20;;;;;;;10.96;86.96;100281.22;5050655;28;20064;-59
2023/01/04 10:45:49;;;;;;;2.55;1.00;;;;;;;10.92;86.87;100271.88;5051349;28;20517;-60
2023/01/04 10:48:29;;;;;;;2.20;1.00;;;;;;;11.12;86.55;100279.63;5051957;28;20060;-59
2023/01/04 10:50:58;;;;;;;1.63;1.08;;;;;;;10.88;86.71;100271.69;5046603;28;20059;-59
2023/01/04 10:53:30;;;;;;;1.95;0.90;;;;;;;10.98;86.29;100273.34;5061980;28;20059;-59
2023/01/04 10:56:05;;;;;;;3.20;1.10;;;;;;;10.93;86.59;100304.97;5062385;28;20059;-59
2023/01/04 10:58:46;;;;;;;1.67;1.10;;;;;;;10.69;89.17;100273.91;5051467;28;20057;-59
2023/01/04 11:01:19;;;;;;;1.48;0.80;;;;;;;10.60;89.29;100276.63;5055210;28;20061;-59
2023/01/04 11:03:52;;;;;;;1.33;0.95;;;;;;;10.57;89.09;100285.63;5050710;28;20075;-60
2023/01/04 11:06:23;;;;;;;1.70;0.90;;;;;;;10.81;89.04;100240.66;5061454;28;20048;-60
2023/01/04 11:08:57;;;;;;;2.05;0.93;;;;;;;10.91;88.74;100245.97;5048659;28;20045;-59
2023/01/04 11:11:32;;;;;;;1.83;1.10;;;;;;;11.01;88.48;100250.44;5050340;28;20064;-60
2023/01/04 11:14:00;;;;;;;2.53;1.02;;;;;;;10.97;88.20;100233.53;5050985;28;20053;-61
2023/01/04 11:16:29;;;;;;;1.92;0.80;;;;;;;11.03;88.01;100231.41;5049805;28;20049;-60
2023/01/04 11:18:58;;;;;;;2.20;1.02;;;;;;;11.12;88.23;100237.81;5050027;28;20397;-61
2023/01/04 11:21:29;;;;;;;6.57;1.20;;;;;;;11.01;88.67;100230.09;5048610;28;20068;-59
2023/01/04 11:23:59;;;;;;;1.90;1.10;;;;;;;10.94;89.97;100227.75;5050603;28;20048;-59
2023/01/04 11:26:40;;;;;;;2.67;1.10;;;;;;;11.01;89.74;100227.31;5059757;28;20048;-59
2023/01/04 11:29:24;;;;;;;1.95;0.90;;;;;;;11.21;89.97;100223.09;5051777;28;20401;-59
2023/01/04 11:31:56;;;;;;;1.90;0.95;;;;;;;11.06;88.59;100227.16;5051207;28;20049;-57
2023/01/04 11:34:43;;;;;;;1.48;0.88;;;;;;;11.11;86.78;100199.16;5048844;28;20535;-58
2023/01/04 11:37:28;;;;;;;1.60;0.90;;;;;;;11.12;86.73;100204.38;5049589;28;20049;-58
2023/01/04 11:40:11;;;;;;;1.58;0.90;;;;;;;11.24;85.98;100203.75;5047510;28;20413;-57
2023/01/04 11:42:40;;;;;;;1.50;0.88;;;;;;;11.47;85.54;100192.47;5050338;28;20053;-58
2023/01/04 11:45:17;;;;;;;1.50;1.08;;;;;;;11.19;86.75;100192.75;5048573;28;20049;-58
2023/01/04 11:47:50;;;;;;;4.13;1.80;;;;;;;11.26;87.88;100195.88;5049480;28;20048;-58
2023/01/04 11:50:40;;;;;;;3.03;1.50;;;;;;;11.33;86.91;100196.22;5049331;28;20409;-58
2023/01/04 11:53:30;;;;;;;1.85;1.33;;;;;;;11.24;86.89;100180.63;5049714;28;20053;-58
2023/01/04 11:56:14;;;;;;;;;;;;;;;11.37;85.93;100186.03;5050148;28;20065;-57
2023/01/04 11:58:44;;;;;;;2.20;1.20;;;;;;;11.34;86.06;100158.84;5051588;28;19921;-58
2023/01/04 12:01:22;;;;;;;4.50;1.30;;;;;;;11.33;86.12;100168.31;5052222;28;20045;-57
2023/01/04 12:03:50;;;;;;;2.45;1.30;;;;;;;11.52;86.91;100161.63;5056979;28;20053;-57
2023/01/04 12:06:20;;;;;;;2.17;1.33;;;;;;;11.54;86.73;100168.50;5055270;28;20053;-56
2023/01/04 12:08:49;;;;;;;1.92;1.10;;;;;;;11.52;86.97;100158.81;5056455;28;20049;-58
2023/01/04 12:11:23;;;;;;;2.17;1.15;;;;;;;11.54;87.08;100159.31;5063486;28;20044;-57
2023/01/04 12:13:52;;;;;;;2.13;1.25;;;;;;;11.48;87.75;100166.19;5061303;28;20092;-58
2023/01/04 12:16:28;;;;;;;2.28;1.27;;;;;;;11.62;88.29;100164.06;5055322;28;20445;-57
2023/01/04 12:18:56;;;;;;;2.55;1.20;;;;;;;11.44;87.70;100151.28;5062224;28;20064;-57
2023/01/04 12:21:25;;;;;;;3.30;1.15;;;;;;;11.46;87.61;100158.16;5053746;28;20421;-57
2023/01/04 12:23:54;;;;;;;1.95;1.10;;;;;;;11.46;87.37;100172.09;5063005;28;20056;-58
2023/01/04 12:26:22;;;;;;;3.45;1.42;;;;;;;11.41;87.38;100152.75;5055279;28;20045;-58
2023/01/04 12:29:12;;;;;;;1.45;1.00;;;;;;;11.47;87.47;100156.22;5057510;28;20416;-58